sensor_id;sensor_type;location;lat;lon;timestamp;P1;durP1;ratioP1;P2;durP2;ratioP2
4957;SDS011;2494;51.872;9.688;2022-09-16T00:00:48;2.30;;;1.40;;
4957;SDS011;2494;51.872;9.688;2022-09-16T00:03:15;7.70;;;1.40;;
4957;SDS011;2494;51.872;9.688;2022-09-16T00:05:42;1.50;;;1.10;;
4957;SDS011;2494;51.872;9.688;2022-09-16T00:08:10;1.70;;;1.30;;
4957;SDS011;2494;51.872;9.688;2022-09-16T00:10:36;2.43;;;1.40;;
4957;SDS011;2494;51.872;9.688;2022-09-16T00:13:03;4.03;;;1.40;;
4957;SDS011;2494;51.872;9.688;2022-09-16T00:15:30;2.60;;;1.10;;
4957;SDS011;2494;51.872;9.688;2022-09-16T00:17:56;3.20;;;1.50;;
4957;SDS011;2494;51.872;9.688;2022-09-16T00:20:23;2.43;;;1.30;;
4957;SDS011;2494;51.872;9.688;2022-09-16T00:22:50;2.05;;;1.00;;
4957;SDS011;2494;51.872;9.688;2022-09-16T00:25:17;3.63;;;1.07;;
4957;SDS011;2494;51.872;9.688;2022-09-16T00:27:46;1.90;;;1.10;;
4957;SDS011;2494;51.872;9.688;2022-09-16T00:30:12;7.43;;;1.63;;
4957;SDS011;2494;51.872;9.688;2022-09-16T00:32:38;1.90;;;1.00;;
4957;SDS011;2494;51.872;9.688;2022-09-16T00:35:05;3.43;;;1.30;;
4957;SDS011;2494;51.872;9.688;2022-09-16T00:37:32;1.80;;;1.17;;
4957;SDS011;2494;51.872;9.688;2022-09-16T00:39:58;1.50;;;1.40;;
4957;SDS011;2494;51.872;9.688;2022-09-16T00:42:27;2.33;;;1.30;;
4957;SDS011;2494;51.872;9.688;2022-09-16T00:44:54;3.20;;;0.97;;
4957;SDS011;2494;51.872;9.688;2022-09-16T00:47:22;1.30;;;1.00;;
4957;SDS011;2494;51.872;9.688;2022-09-16T00:49:49;3.33;;;1.00;;
4957;SDS011;2494;51.872;9.688;2022-09-16T00:52:16;4.13;;;1.20;;
4957;SDS011;2494;51.872;9.688;2022-09-16T00:54:43;2.07;;;1.23;;
4957;SDS011;2494;51.872;9.688;2022-09-16T00:57:10;1.97;;;1.20;;
4957;SDS011;2494;51.872;9.688;2022-09-16T00:59:40;4.33;;;1.73;;
4957;SDS011;2494;51.872;9.688;2022-09-16T01:02:08;2.23;;;1.50;;
4957;SDS011;2494;51.872;9.688;2022-09-16T01:04:36;2.03;;;1.80;;
4957;SDS011;2494;51.872;9.688;2022-09-16T01:07:03;1.83;;;1.73;;
4957;SDS011;2494;51.872;9.688;2022-09-16T01:09:30;5.27;;;2.50;;
4957;SDS011;2494;51.872;9.688;2022-09-16T01:12:03;2.20;;;2.00;;
4957;SDS011;2494;51.872;9.688;2022-09-16T01:14:29;3.67;;;2.40;;
4957;SDS011;2494;51.872;9.688;2022-09-16T01:17:16;3.60;;;2.50;;
4957;SDS011;2494;51.872;9.688;2022-09-16T01:19:55;3.23;;;2.30;;
4957;SDS011;2494;51.872;9.688;2022-09-16T01:22:29;2.73;;;2.23;;
4957;SDS011;2494;51.872;9.688;2022-09-16T01:25:03;6.57;;;3.00;;
4957;SDS011;2494;51.872;9.688;2022-09-16T01:33:10;4.77;;;2.70;;
4957;SDS011;2494;51.872;9.688;2022-09-16T01:35:44;3.27;;;2.37;;
4957;SDS011;2494;51.872;9.688;2022-09-16T01:38:17;2.80;;;2.60;;
4957;SDS011;2494;51.872;9.688;2022-09-16T01:40:46;5.73;;;3.20;;
4957;SDS011;2494;51.872;9.688;2022-09-16T01:43:16;5.10;;;3.07;;
4957;SDS011;2494;51.872;9.688;2022-09-16T01:45:48;4.73;;;3.00;;
4957;SDS011;2494;51.872;9.688;2022-09-16T01:48:19;5.50;;;3.10;;
4957;SDS011;2494;51.872;9.688;2022-09-16T01:50:49;3.60;;;3.30;;
4957;SDS011;2494;51.872;9.688;2022-09-16T01:53:20;4.70;;;3.03;;
4957;SDS011;2494;51.872;9.688;2022-09-16T01:55:49;4.97;;;2.90;;
4957;SDS011;2494;51.872;9.688;2022-09-16T01:58:20;3.13;;;2.50;;
4957;SDS011;2494;51.872;9.688;2022-09-16T02:00:48;4.23;;;2.77;;
4957;SDS011;2494;51.872;9.688;2022-09-16T02:03:16;4.90;;;2.60;;
4957;SDS011;2494;51.872;9.688;2022-09-16T02:05:49;2.77;;;2.47;;
4957;SDS011;2494;51.872;9.688;2022-09-16T02:08:17;3.07;;;2.77;;
4957;SDS011;2494;51.872;9.688;2022-09-16T02:13:44;8.50;;;3.20;;
4957;SDS011;2494;51.872;9.688;2022-09-16T02:16:12;3.93;;;2.63;;
4957;SDS011;2494;51.872;9.688;2022-09-16T02:18:45;3.70;;;2.70;;
4957;SDS011;2494;51.872;9.688;2022-09-16T02:21:16;7.57;;;3.30;;
4957;SDS011;2494;51.872;9.688;2022-09-16T02:23:44;3.60;;;2.60;;
4957;SDS011;2494;51.872;9.688;2022-09-16T02:26:11;2.93;;;2.43;;
4957;SDS011;2494;51.872;9.688;2022-09-16T02:28:40;2.93;;;2.63;;
4957;SDS011;2494;51.872;9.688;2022-09-16T02:31:08;2.90;;;2.70;;
4957;SDS011;2494;51.872;9.688;2022-09-16T02:33:35;3.73;;;3.17;;
4957;SDS011;2494;51.872;9.688;2022-09-16T02:36:03;3.40;;;3.10;;
4957;SDS011;2494;51.872;9.688;2022-09-16T02:38:31;3.30;;;2.97;;
4957;SDS011;2494;51.872;9.688;2022-09-16T02:41:00;3.10;;;2.80;;
4957;SDS011;2494;51.872;9.688;2022-09-16T02:43:26;4.60;;;3.50;;
4957;SDS011;2494;51.872;9.688;2022-09-16T02:45:55;3.40;;;3.10;;
4957;SDS011;2494;51.872;9.688;2022-09-16T02:48:26;4.40;;;3.10;;
4957;SDS011;2494;51.872;9.688;2022-09-16T02:50:56;3.43;;;3.07;;
4957;SDS011;2494;51.872;9.688;2022-09-16T02:53:26;3.70;;;3.40;;
4957;SDS011;2494;51.872;9.688;2022-09-16T02:56:02;2.80;;;2.60;;
4957;SDS011;2494;51.872;9.688;2022-09-16T02:58:31;4.27;;;2.70;;
4957;SDS011;2494;51.872;9.688;2022-09-16T03:00:57;8.20;;;2.97;;
4957;SDS011;2494;51.872;9.688;2022-09-16T03:03:24;4.30;;;3.13;;
4957;SDS011;2494;51.872;9.688;2022-09-16T03:05:59;5.82;;;3.45;;
4957;SDS011;2494;51.872;9.688;2022-09-16T03:08:29;3.17;;;2.67;;
4957;SDS011;2494;51.872;9.688;2022-09-16T03:10:55;4.03;;;3.23;;
4957;SDS011;2494;51.872;9.688;2022-09-16T03:13:26;6.57;;;3.60;;
4957;SDS011;2494;51.872;9.688;2022-09-16T03:15:57;9.43;;;3.20;;
4957;SDS011;2494;51.872;9.688;2022-09-16T03:18:36;6.23;;;3.43;;
4957;SDS011;2494;51.872;9.688;2022-09-16T03:21:04;4.00;;;2.60;;
4957;SDS011;2494;51.872;9.688;2022-09-16T03:23:38;4.40;;;3.17;;
4957;SDS011;2494;51.872;9.688;2022-09-16T03:26:09;4.17;;;3.43;;
4957;SDS011;2494;51.872;9.688;2022-09-16T03:28:41;3.47;;;3.17;;
4957;SDS011;2494;51.872;9.688;2022-09-16T03:31:11;4.03;;;3.50;;
4957;SDS011;2494;51.872;9.688;2022-09-16T03:33:40;4.33;;;4.00;;
4957;SDS011;2494;51.872;9.688;2022-09-16T03:36:08;7.20;;;3.97;;
4957;SDS011;2494;51.872;9.688;2022-09-16T03:38:44;4.40;;;4.10;;
4957;SDS011;2494;51.872;9.688;2022-09-16T03:41:10;4.27;;;3.93;;
4957;SDS011;2494;51.872;9.688;2022-09-16T03:43:39;4.40;;;4.00;;
4957;SDS011;2494;51.872;9.688;2022-09-16T03:46:08;6.73;;;4.00;;
4957;SDS011;2494;51.872;9.688;2022-09-16T03:48:36;3.90;;;3.43;;
4957;SDS011;2494;51.872;9.688;2022-09-16T03:51:02;5.97;;;3.63;;
4957;SDS011;2494;51.872;9.688;2022-09-16T03:53:29;5.30;;;3.80;;
4957;SDS011;2494;51.872;9.688;2022-09-16T03:55:55;4.00;;;3.70;;
4957;SDS011;2494;51.872;9.688;2022-09-16T03:58:21;5.67;;;3.53;;
4957;SDS011;2494;51.872;9.688;2022-09-16T04:00:49;3.63;;;3.33;;
4957;SDS011;2494;51.872;9.688;2022-09-16T04:03:16;8.03;;;4.53;;
4957;SDS011;2494;51.872;9.688;2022-09-16T04:05:42;3.93;;;3.60;;
4957;SDS011;2494;51.872;9.688;2022-09-16T04:08:08;3.33;;;3.03;;
4957;SDS011;2494;51.872;9.688;2022-09-16T04:10:35;3.60;;;3.20;;
4957;SDS011;2494;51.872;9.688;2022-09-16T04:13:01;3.90;;;3.20;;
4957;SDS011;2494;51.872;9.688;2022-09-16T04:15:27;3.60;;;3.40;;
4957;SDS011;2494;51.872;9.688;2022-09-16T04:17:57;4.90;;;2.93;;
4957;SDS011;2494;51.872;9.688;2022-09-16T04:20:25;3.90;;;3.53;;
4957;SDS011;2494;51.872;9.688;2022-09-16T04:22:51;3.38;;;3.00;;
4957;SDS011;2494;51.872;9.688;2022-09-16T04:25:17;3.03;;;2.60;;
4957;SDS011;2494;51.872;9.688;2022-09-16T04:27:44;4.60;;;3.30;;
4957;SDS011;2494;51.872;9.688;2022-09-16T04:30:10;4.67;;;3.20;;
4957;SDS011;2494;51.872;9.688;2022-09-16T04:32:37;5.17;;;3.30;;
4957;SDS011;2494;51.872;9.688;2022-09-16T04:35:05;3.65;;;2.83;;
4957;SDS011;2494;51.872;9.688;2022-09-16T04:37:32;6.40;;;3.27;;
4957;SDS011;2494;51.872;9.688;2022-09-16T04:39:58;3.70;;;3.40;;
4957;SDS011;2494;51.872;9.688;2022-09-16T04:42:24;5.63;;;3.00;;
4957;SDS011;2494;51.872;9.688;2022-09-16T04:44:51;7.57;;;3.63;;
4957;SDS011;2494;51.872;9.688;2022-09-16T04:47:17;3.83;;;3.57;;
4957;SDS011;2494;51.872;9.688;2022-09-16T04:49:43;5.27;;;3.30;;
4957;SDS011;2494;51.872;9.688;2022-09-16T04:52:11;3.43;;;2.87;;
4957;SDS011;2494;51.872;9.688;2022-09-16T04:54:37;6.20;;;3.27;;
4957;SDS011;2494;51.872;9.688;2022-09-16T04:57:04;5.30;;;3.43;;
4957;SDS011;2494;51.872;9.688;2022-09-16T04:59:30;3.57;;;3.30;;
4957;SDS011;2494;51.872;9.688;2022-09-16T05:01:57;5.03;;;2.97;;
4957;SDS011;2494;51.872;9.688;2022-09-16T05:04:24;2.90;;;2.70;;
4957;SDS011;2494;51.872;9.688;2022-09-16T05:06:50;4.30;;;3.73;;
4957;SDS011;2494;51.872;9.688;2022-09-16T05:09:18;6.97;;;4.40;;
4957;SDS011;2494;51.872;9.688;2022-09-16T05:11:46;4.97;;;4.00;;
4957;SDS011;2494;51.872;9.688;2022-09-16T05:14:19;3.70;;;3.30;;
4957;SDS011;2494;51.872;9.688;2022-09-16T05:16:45;6.90;;;5.50;;
4957;SDS011;2494;51.872;9.688;2022-09-16T05:19:12;6.53;;;4.00;;
4957;SDS011;2494;51.872;9.688;2022-09-16T05:21:38;4.90;;;4.47;;
4957;SDS011;2494;51.872;9.688;2022-09-16T05:24:07;5.30;;;3.90;;
4957;SDS011;2494;51.872;9.688;2022-09-16T05:26:37;10.13;;;4.60;;
4957;SDS011;2494;51.872;9.688;2022-09-16T05:29:04;5.47;;;4.03;;
4957;SDS011;2494;51.872;9.688;2022-09-16T05:31:31;5.63;;;4.90;;
4957;SDS011;2494;51.872;9.688;2022-09-16T05:33:59;10.67;;;5.27;;
4957;SDS011;2494;51.872;9.688;2022-09-16T05:36:26;4.90;;;4.50;;
4957;SDS011;2494;51.872;9.688;2022-09-16T05:38:53;4.40;;;4.00;;
4957;SDS011;2494;51.872;9.688;2022-09-16T05:41:20;4.87;;;4.57;;
4957;SDS011;2494;51.872;9.688;2022-09-16T05:43:48;5.00;;;4.50;;
4957;SDS011;2494;51.872;9.688;2022-09-16T05:46:16;4.97;;;4.30;;
4957;SDS011;2494;51.872;9.688;2022-09-16T05:48:43;3.70;;;3.40;;
4957;SDS011;2494;51.872;9.688;2022-09-16T05:51:09;4.97;;;4.37;;
4957;SDS011;2494;51.872;9.688;2022-09-16T05:53:38;5.23;;;4.73;;
4957;SDS011;2494;51.872;9.688;2022-09-16T05:56:05;4.80;;;4.17;;
4957;SDS011;2494;51.872;9.688;2022-09-16T05:58:33;6.35;;;4.97;;
4957;SDS011;2494;51.872;9.688;2022-09-16T06:01:01;4.43;;;4.00;;
4957;SDS011;2494;51.872;9.688;2022-09-16T06:03:29;7.50;;;5.40;;
4957;SDS011;2494;51.872;9.688;2022-09-16T06:05:58;5.37;;;5.03;;
4957;SDS011;2494;51.872;9.688;2022-09-16T06:08:24;5.10;;;4.70;;
4957;SDS011;2494;51.872;9.688;2022-09-16T06:10:50;10.67;;;4.40;;
4957;SDS011;2494;51.872;9.688;2022-09-16T06:13:29;3.93;;;3.47;;
4957;SDS011;2494;51.872;9.688;2022-09-16T06:15:56;6.93;;;5.60;;
4957;SDS011;2494;51.872;9.688;2022-09-16T06:18:27;4.27;;;3.97;;
4957;SDS011;2494;51.872;9.688;2022-09-16T06:20:54;5.57;;;5.13;;
4957;SDS011;2494;51.872;9.688;2022-09-16T06:26:10;5.00;;;3.00;;
4957;SDS011;2494;51.872;9.688;2022-09-16T06:28:38;6.25;;;4.43;;
4957;SDS011;2494;51.872;9.688;2022-09-16T06:31:05;3.57;;;3.27;;
4957;SDS011;2494;51.872;9.688;2022-09-16T06:33:33;2.70;;;2.50;;
4957;SDS011;2494;51.872;9.688;2022-09-16T06:36:03;3.27;;;2.23;;
4957;SDS011;2494;51.872;9.688;2022-09-16T06:38:30;4.27;;;2.67;;
4957;SDS011;2494;51.872;9.688;2022-09-16T06:40:57;3.10;;;2.37;;
4957;SDS011;2494;51.872;9.688;2022-09-16T06:43:23;2.93;;;2.63;;
4957;SDS011;2494;51.872;9.688;2022-09-16T06:45:49;3.87;;;2.50;;
4957;SDS011;2494;51.872;9.688;2022-09-16T06:48:16;2.47;;;1.97;;
4957;SDS011;2494;51.872;9.688;2022-09-16T06:50:43;6.97;;;2.67;;
4957;SDS011;2494;51.872;9.688;2022-09-16T06:53:10;2.87;;;2.20;;
4957;SDS011;2494;51.872;9.688;2022-09-16T06:55:36;1.90;;;1.80;;
4957;SDS011;2494;51.872;9.688;2022-09-16T06:58:03;3.90;;;1.70;;
4957;SDS011;2494;51.872;9.688;2022-09-16T07:00:29;1.90;;;1.43;;
4957;SDS011;2494;51.872;9.688;2022-09-16T07:02:55;6.33;;;1.87;;
4957;SDS011;2494;51.872;9.688;2022-09-16T07:05:22;3.20;;;1.50;;
4957;SDS011;2494;51.872;9.688;2022-09-16T07:07:50;2.03;;;1.63;;
4957;SDS011;2494;51.872;9.688;2022-09-16T07:10:17;3.10;;;1.90;;
4957;SDS011;2494;51.872;9.688;2022-09-16T07:12:44;2.27;;;1.70;;
4957;SDS011;2494;51.872;9.688;2022-09-16T07:15:10;1.73;;;1.50;;
4957;SDS011;2494;51.872;9.688;2022-09-16T07:17:37;2.23;;;1.60;;
4957;SDS011;2494;51.872;9.688;2022-09-16T07:20:03;9.73;;;1.43;;
4957;SDS011;2494;51.872;9.688;2022-09-16T07:22:30;2.70;;;1.30;;
4957;SDS011;2494;51.872;9.688;2022-09-16T07:24:58;2.10;;;1.33;;
4957;SDS011;2494;51.872;9.688;2022-09-16T07:27:24;4.30;;;1.40;;
4957;SDS011;2494;51.872;9.688;2022-09-16T07:29:51;1.57;;;1.30;;
4957;SDS011;2494;51.872;9.688;2022-09-16T07:32:18;3.47;;;1.20;;
4957;SDS011;2494;51.872;9.688;2022-09-16T07:34:45;11.60;;;1.63;;
4957;SDS011;2494;51.872;9.688;2022-09-16T07:37:11;3.00;;;1.50;;
4957;SDS011;2494;51.872;9.688;2022-09-16T07:39:38;4.50;;;1.43;;
4957;SDS011;2494;51.872;9.688;2022-09-16T07:42:07;3.53;;;1.50;;
4957;SDS011;2494;51.872;9.688;2022-09-16T07:44:34;1.67;;;1.40;;
4957;SDS011;2494;51.872;9.688;2022-09-16T07:47:01;2.70;;;1.50;;
4957;SDS011;2494;51.872;9.688;2022-09-16T07:49:27;3.53;;;1.50;;
4957;SDS011;2494;51.872;9.688;2022-09-16T07:51:55;3.13;;;1.27;;
4957;SDS011;2494;51.872;9.688;2022-09-16T07:54:21;5.93;;;1.60;;
4957;SDS011;2494;51.872;9.688;2022-09-16T07:56:48;3.00;;;1.40;;
4957;SDS011;2494;51.872;9.688;2022-09-16T07:59:16;2.10;;;1.70;;
4957;SDS011;2494;51.872;9.688;2022-09-16T08:01:43;4.17;;;1.30;;
4957;SDS011;2494;51.872;9.688;2022-09-16T08:04:09;3.60;;;1.13;;
4957;SDS011;2494;51.872;9.688;2022-09-16T08:06:36;1.53;;;0.90;;
4957;SDS011;2494;51.872;9.688;2022-09-16T08:09:03;3.57;;;1.37;;
4957;SDS011;2494;51.872;9.688;2022-09-16T08:11:30;1.47;;;1.20;;
4957;SDS011;2494;51.872;9.688;2022-09-16T08:13:56;3.37;;;1.27;;
4957;SDS011;2494;51.872;9.688;2022-09-16T08:16:25;1.80;;;1.30;;
4957;SDS011;2494;51.872;9.688;2022-09-16T08:18:53;1.97;;;1.27;;
4957;SDS011;2494;51.872;9.688;2022-09-16T08:21:20;1.87;;;1.00;;
4957;SDS011;2494;51.872;9.688;2022-09-16T08:23:48;3.60;;;1.10;;
4957;SDS011;2494;51.872;9.688;2022-09-16T08:26:15;1.27;;;0.83;;
4957;SDS011;2494;51.872;9.688;2022-09-16T08:28:42;2.00;;;0.70;;
4957;SDS011;2494;51.872;9.688;2022-09-16T08:31:09;1.80;;;0.80;;
4957;SDS011;2494;51.872;9.688;2022-09-16T08:33:49;1.17;;;0.67;;
4957;SDS011;2494;51.872;9.688;2022-09-16T08:36:23;2.10;;;0.90;;
4957;SDS011;2494;51.872;9.688;2022-09-16T08:38:51;2.20;;;1.10;;
4957;SDS011;2494;51.872;9.688;2022-09-16T08:41:25;0.90;;;0.80;;
4957;SDS011;2494;51.872;9.688;2022-09-16T08:43:56;1.07;;;0.97;;
4957;SDS011;2494;51.872;9.688;2022-09-16T08:46:25;2.20;;;0.70;;
4957;SDS011;2494;51.872;9.688;2022-09-16T08:49:00;1.97;;;0.90;;
4957;SDS011;2494;51.872;9.688;2022-09-16T08:51:28;1.97;;;0.70;;
4957;SDS011;2494;51.872;9.688;2022-09-16T08:53:58;0.90;;;0.80;;
4957;SDS011;2494;51.872;9.688;2022-09-16T08:56:39;1.83;;;0.57;;
4957;SDS011;2494;51.872;9.688;2022-09-16T08:59:06;3.33;;;0.80;;
4957;SDS011;2494;51.872;9.688;2022-09-16T09:01:37;2.60;;;0.87;;
4957;SDS011;2494;51.872;9.688;2022-09-16T09:07:00;1.57;;;0.80;;
4957;SDS011;2494;51.872;9.688;2022-09-16T09:09:41;1.33;;;0.80;;
4957;SDS011;2494;51.872;9.688;2022-09-16T09:12:36;1.53;;;0.93;;
4957;SDS011;2494;51.872;9.688;2022-09-16T09:18:43;3.83;;;0.90;;
4957;SDS011;2494;51.872;9.688;2022-09-16T09:21:15;3.13;;;0.90;;
4957;SDS011;2494;51.872;9.688;2022-09-16T09:23:53;1.83;;;1.10;;
4957;SDS011;2494;51.872;9.688;2022-09-16T09:26:25;1.90;;;0.77;;
4957;SDS011;2494;51.872;9.688;2022-09-16T09:29:05;3.35;;;1.08;;
4957;SDS011;2494;51.872;9.688;2022-09-16T09:32:12;3.53;;;1.00;;
4957;SDS011;2494;51.872;9.688;2022-09-16T09:34:51;1.83;;;0.93;;
4957;SDS011;2494;51.872;9.688;2022-09-16T09:37:28;2.20;;;1.07;;
4957;SDS011;2494;51.872;9.688;2022-09-16T09:40:14;3.88;;;1.45;;
4957;SDS011;2494;51.872;9.688;2022-09-16T09:42:58;2.40;;;0.80;;
4957;SDS011;2494;51.872;9.688;2022-09-16T09:45:44;2.80;;;1.13;;
4957;SDS011;2494;51.872;9.688;2022-09-16T09:48:32;1.83;;;0.73;;
4957;SDS011;2494;51.872;9.688;2022-09-16T09:51:24;2.85;;;1.10;;
4957;SDS011;2494;51.872;9.688;2022-09-16T09:54:11;4.20;;;0.90;;
4957;SDS011;2494;51.872;9.688;2022-09-16T09:56:42;2.50;;;1.20;;
4957;SDS011;2494;51.872;9.688;2022-09-16T09:59:15;3.90;;;1.10;;
4957;SDS011;2494;51.872;9.688;2022-09-16T10:01:45;5.27;;;1.10;;
4957;SDS011;2494;51.872;9.688;2022-09-16T10:04:11;3.90;;;1.00;;
4957;SDS011;2494;51.872;9.688;2022-09-16T10:06:41;3.30;;;0.97;;
4957;SDS011;2494;51.872;9.688;2022-09-16T10:09:09;3.07;;;0.97;;
4957;SDS011;2494;51.872;9.688;2022-09-16T10:11:44;2.50;;;1.27;;
4957;SDS011;2494;51.872;9.688;2022-09-16T10:14:18;9.17;;;1.30;;
4957;SDS011;2494;51.872;9.688;2022-09-16T10:16:46;3.10;;;0.97;;
4957;SDS011;2494;51.872;9.688;2022-09-16T10:19:16;2.10;;;0.90;;
4957;SDS011;2494;51.872;9.688;2022-09-16T10:21:46;1.50;;;0.90;;
4957;SDS011;2494;51.872;9.688;2022-09-16T10:24:24;2.57;;;1.10;;
4957;SDS011;2494;51.872;9.688;2022-09-16T10:26:52;3.63;;;1.20;;
4957;SDS011;2494;51.872;9.688;2022-09-16T10:29:18;2.77;;;1.00;;
4957;SDS011;2494;51.872;9.688;2022-09-16T10:31:45;4.20;;;1.97;;
4957;SDS011;2494;51.872;9.688;2022-09-16T10:34:13;2.23;;;1.00;;
4957;SDS011;2494;51.872;9.688;2022-09-16T10:36:40;8.93;;;1.33;;
4957;SDS011;2494;51.872;9.688;2022-09-16T10:39:22;2.53;;;1.10;;
4957;SDS011;2494;51.872;9.688;2022-09-16T10:41:51;5.80;;;1.13;;
4957;SDS011;2494;51.872;9.688;2022-09-16T10:44:20;5.57;;;1.42;;
4957;SDS011;2494;51.872;9.688;2022-09-16T10:46:49;6.13;;;1.70;;
4957;SDS011;2494;51.872;9.688;2022-09-16T10:49:15;3.03;;;1.20;;
4957;SDS011;2494;51.872;9.688;2022-09-16T10:51:43;2.90;;;1.10;;
4957;SDS011;2494;51.872;9.688;2022-09-16T10:54:22;2.23;;;0.83;;
4957;SDS011;2494;51.872;9.688;2022-09-16T10:56:49;4.10;;;0.90;;
4957;SDS011;2494;51.872;9.688;2022-09-16T10:59:16;3.80;;;1.20;;
4957;SDS011;2494;51.872;9.688;2022-09-16T11:01:43;2.10;;;1.30;;
4957;SDS011;2494;51.872;9.688;2022-09-16T11:06:56;2.83;;;1.00;;
4957;SDS011;2494;51.872;9.688;2022-09-16T11:09:27;5.60;;;2.20;;
4957;SDS011;2494;51.872;9.688;2022-09-16T11:12:05;2.67;;;0.90;;
4957;SDS011;2494;51.872;9.688;2022-09-16T11:14:38;3.00;;;1.13;;
4957;SDS011;2494;51.872;9.688;2022-09-16T11:19:56;3.90;;;1.00;;
4957;SDS011;2494;51.872;9.688;2022-09-16T11:22:28;9.03;;;1.00;;
4957;SDS011;2494;51.872;9.688;2022-09-16T11:25:03;2.80;;;1.00;;
4957;SDS011;2494;51.872;9.688;2022-09-16T11:27:36;3.63;;;1.00;;
4957;SDS011;2494;51.872;9.688;2022-09-16T11:30:08;2.80;;;0.87;;
4957;SDS011;2494;51.872;9.688;2022-09-16T11:32:42;2.97;;;1.00;;
4957;SDS011;2494;51.872;9.688;2022-09-16T11:35:20;1.73;;;0.90;;
4957;SDS011;2494;51.872;9.688;2022-09-16T11:37:48;1.90;;;0.97;;
4957;SDS011;2494;51.872;9.688;2022-09-16T11:40:22;1.40;;;0.70;;
4957;SDS011;2494;51.872;9.688;2022-09-16T11:42:51;2.63;;;1.10;;
4957;SDS011;2494;51.872;9.688;2022-09-16T11:45:45;3.37;;;1.10;;
4957;SDS011;2494;51.872;9.688;2022-09-16T11:48:18;3.17;;;1.15;;
4957;SDS011;2494;51.872;9.688;2022-09-16T11:50:48;2.13;;;1.00;;
4957;SDS011;2494;51.872;9.688;2022-09-16T11:53:34;5.25;;;0.80;;
4957;SDS011;2494;51.872;9.688;2022-09-16T11:56:07;3.10;;;1.07;;
4957;SDS011;2494;51.872;9.688;2022-09-16T11:58:37;2.93;;;1.10;;
4957;SDS011;2494;51.872;9.688;2022-09-16T12:01:09;1.70;;;0.80;;
4957;SDS011;2494;51.872;9.688;2022-09-16T12:03:41;2.08;;;0.80;;
4957;SDS011;2494;51.872;9.688;2022-09-16T12:06:12;5.60;;;1.07;;
4957;SDS011;2494;51.872;9.688;2022-09-16T12:08:43;2.90;;;0.80;;
4957;SDS011;2494;51.872;9.688;2022-09-16T12:11:17;4.13;;;1.63;;
4957;SDS011;2494;51.872;9.688;2022-09-16T12:13:45;3.30;;;1.10;;
4957;SDS011;2494;51.872;9.688;2022-09-16T12:16:14;3.00;;;1.00;;
4957;SDS011;2494;51.872;9.688;2022-09-16T12:18:43;1.63;;;0.80;;
4957;SDS011;2494;51.872;9.688;2022-09-16T12:21:11;1.53;;;0.90;;
4957;SDS011;2494;51.872;9.688;2022-09-16T12:23:40;2.63;;;1.07;;
4957;SDS011;2494;51.872;9.688;2022-09-16T12:26:09;1.97;;;0.90;;
4957;SDS011;2494;51.872;9.688;2022-09-16T12:28:38;1.90;;;1.20;;
4957;SDS011;2494;51.872;9.688;2022-09-16T12:31:08;2.97;;;1.00;;
4957;SDS011;2494;51.872;9.688;2022-09-16T12:33:38;2.07;;;1.20;;
4957;SDS011;2494;51.872;9.688;2022-09-16T12:36:06;5.90;;;1.00;;
4957;SDS011;2494;51.872;9.688;2022-09-16T12:38:34;1.90;;;1.00;;
4957;SDS011;2494;51.872;9.688;2022-09-16T12:41:04;1.43;;;0.80;;
4957;SDS011;2494;51.872;9.688;2022-09-16T12:43:46;3.75;;;1.08;;
4957;SDS011;2494;51.872;9.688;2022-09-16T12:46:31;3.47;;;0.97;;
4957;SDS011;2494;51.872;9.688;2022-09-16T12:49:12;3.70;;;0.90;;
4957;SDS011;2494;51.872;9.688;2022-09-16T12:54:42;4.20;;;1.30;;
4957;SDS011;2494;51.872;9.688;2022-09-16T12:57:21;4.80;;;1.00;;
4957;SDS011;2494;51.872;9.688;2022-09-16T12:59:55;2.17;;;0.97;;
4957;SDS011;2494;51.872;9.688;2022-09-16T13:02:25;4.83;;;1.13;;
4957;SDS011;2494;51.872;9.688;2022-09-16T13:04:53;5.80;;;1.10;;
4957;SDS011;2494;51.872;9.688;2022-09-16T13:07:21;2.40;;;1.10;;
4957;SDS011;2494;51.872;9.688;2022-09-16T13:09:48;3.23;;;0.90;;
4957;SDS011;2494;51.872;9.688;2022-09-16T13:12:25;4.72;;;0.98;;
4957;SDS011;2494;51.872;9.688;2022-09-16T13:14:54;1.50;;;0.77;;
4957;SDS011;2494;51.872;9.688;2022-09-16T13:17:27;2.00;;;0.80;;
4957;SDS011;2494;51.872;9.688;2022-09-16T13:19:54;1.40;;;1.03;;
4957;SDS011;2494;51.872;9.688;2022-09-16T13:22:24;4.33;;;1.00;;
4957;SDS011;2494;51.872;9.688;2022-09-16T13:24:53;2.77;;;0.77;;
4957;SDS011;2494;51.872;9.688;2022-09-16T13:27:28;1.50;;;0.70;;
4957;SDS011;2494;51.872;9.688;2022-09-16T13:30:10;1.45;;;0.80;;
4957;SDS011;2494;51.872;9.688;2022-09-16T13:32:38;4.03;;;0.90;;
4957;SDS011;2494;51.872;9.688;2022-09-16T13:37:47;0.97;;;0.73;;
4957;SDS011;2494;51.872;9.688;2022-09-16T13:40:15;2.47;;;1.00;;
4957;SDS011;2494;51.872;9.688;2022-09-16T13:42:42;1.95;;;0.90;;
4957;SDS011;2494;51.872;9.688;2022-09-16T13:47:51;1.80;;;0.80;;
4957;SDS011;2494;51.872;9.688;2022-09-16T13:50:18;2.15;;;1.08;;
4957;SDS011;2494;51.872;9.688;2022-09-16T13:52:47;2.80;;;1.00;;
4957;SDS011;2494;51.872;9.688;2022-09-16T13:55:17;1.20;;;0.90;;
4957;SDS011;2494;51.872;9.688;2022-09-16T13:57:49;2.30;;;0.60;;
4957;SDS011;2494;51.872;9.688;2022-09-16T14:00:19;2.28;;;0.60;;
4957;SDS011;2494;51.872;9.688;2022-09-16T14:02:53;0.83;;;0.50;;
4957;SDS011;2494;51.872;9.688;2022-09-16T14:08:15;0.80;;;0.57;;
4957;SDS011;2494;51.872;9.688;2022-09-16T14:10:58;4.07;;;0.67;;
4957;SDS011;2494;51.872;9.688;2022-09-16T14:13:31;2.17;;;0.70;;
4957;SDS011;2494;51.872;9.688;2022-09-16T14:16:15;0.80;;;0.60;;
4957;SDS011;2494;51.872;9.688;2022-09-16T14:18:49;1.02;;;0.52;;
4957;SDS011;2494;51.872;9.688;2022-09-16T14:21:21;1.43;;;0.80;;
4957;SDS011;2494;51.872;9.688;2022-09-16T14:29:31;1.10;;;0.73;;
4957;SDS011;2494;51.872;9.688;2022-09-16T14:31:58;3.20;;;0.80;;
4957;SDS011;2494;51.872;9.688;2022-09-16T14:34:25;3.27;;;0.90;;
4957;SDS011;2494;51.872;9.688;2022-09-16T14:36:52;1.87;;;0.70;;
4957;SDS011;2494;51.872;9.688;2022-09-16T14:39:20;2.30;;;0.85;;
4957;SDS011;2494;51.872;9.688;2022-09-16T14:41:48;1.83;;;0.73;;
4957;SDS011;2494;51.872;9.688;2022-09-16T14:44:19;2.27;;;0.70;;
4957;SDS011;2494;51.872;9.688;2022-09-16T14:46:48;5.23;;;0.80;;
4957;SDS011;2494;51.872;9.688;2022-09-16T14:49:17;1.20;;;0.80;;
4957;SDS011;2494;51.872;9.688;2022-09-16T14:51:44;4.50;;;0.90;;
4957;SDS011;2494;51.872;9.688;2022-09-16T14:54:16;1.83;;;0.70;;
4957;SDS011;2494;51.872;9.688;2022-09-16T14:56:53;1.85;;;0.88;;
4957;SDS011;2494;51.872;9.688;2022-09-16T14:59:24;1.63;;;0.90;;
4957;SDS011;2494;51.872;9.688;2022-09-16T15:04:55;1.40;;;0.70;;
4957;SDS011;2494;51.872;9.688;2022-09-16T15:07:23;2.60;;;1.20;;
4957;SDS011;2494;51.872;9.688;2022-09-16T15:09:57;4.37;;;0.83;;
4957;SDS011;2494;51.872;9.688;2022-09-16T15:12:32;2.35;;;0.75;;
4957;SDS011;2494;51.872;9.688;2022-09-16T15:15:13;6.80;;;1.30;;
4957;SDS011;2494;51.872;9.688;2022-09-16T15:17:40;3.60;;;0.90;;
4957;SDS011;2494;51.872;9.688;2022-09-16T15:20:24;1.17;;;0.70;;
4957;SDS011;2494;51.872;9.688;2022-09-16T15:22:51;5.03;;;0.90;;
4957;SDS011;2494;51.872;9.688;2022-09-16T15:25:25;2.10;;;0.87;;
4957;SDS011;2494;51.872;9.688;2022-09-16T15:28:02;5.57;;;1.10;;
4957;SDS011;2494;51.872;9.688;2022-09-16T15:30:31;4.90;;;0.90;;
4957;SDS011;2494;51.872;9.688;2022-09-16T15:33:01;6.93;;;1.33;;
4957;SDS011;2494;51.872;9.688;2022-09-16T15:38:25;2.50;;;0.90;;
4957;SDS011;2494;51.872;9.688;2022-09-16T15:40:59;2.90;;;1.07;;
4957;SDS011;2494;51.872;9.688;2022-09-16T15:43:32;2.93;;;1.00;;
4957;SDS011;2494;51.872;9.688;2022-09-16T15:46:13;1.70;;;0.75;;
4957;SDS011;2494;51.872;9.688;2022-09-16T15:48:42;5.43;;;1.10;;
4957;SDS011;2494;51.872;9.688;2022-09-16T15:51:19;1.60;;;0.90;;
4957;SDS011;2494;51.872;9.688;2022-09-16T15:53:51;1.53;;;0.80;;
4957;SDS011;2494;51.872;9.688;2022-09-16T15:56:36;3.07;;;0.80;;
4957;SDS011;2494;51.872;9.688;2022-09-16T15:59:19;1.40;;;0.93;;
4957;SDS011;2494;51.872;9.688;2022-09-16T16:01:52;3.00;;;1.23;;
4957;SDS011;2494;51.872;9.688;2022-09-16T16:04:21;2.22;;;1.20;;
4957;SDS011;2494;51.872;9.688;2022-09-16T16:06:56;1.97;;;0.90;;
4957;SDS011;2494;51.872;9.688;2022-09-16T16:09:40;2.00;;;0.80;;
4957;SDS011;2494;51.872;9.688;2022-09-16T16:12:08;2.05;;;0.65;;
4957;SDS011;2494;51.872;9.688;2022-09-16T16:14:37;5.10;;;1.20;;
4957;SDS011;2494;51.872;9.688;2022-09-16T16:17:08;3.93;;;0.90;;
4957;SDS011;2494;51.872;9.688;2022-09-16T16:19:35;1.07;;;0.70;;